Terminal Aerodrome Forecast
Issued by NWS Wilmington, NC

Home | Current Version | Previous Version | Text Only | Print | Product List | Glossary On
Versions: 1 2 3 4 5 6 7 8 9 10 11 12 13
603
FTUS42 KILM 201720
TAFMYR
TAF
KMYR 201720Z 2018/2118 17007KT P6SM SCT050 SCT100
     FM210000 22005KT P6SM BKN070
     FM210800 00000KT 3/4SM BR BKN004
     FM211500 16006KT 4SM BR OVC007=

USA.gov is the U.S. government's official web portal to all federal, state and local government web resources and services.